sensor_id;sensor_type;location;lat;lon;timestamp;temperature;humidity
66271;DHT22;53063;39.614;8.814;2022-12-18T00:00:55;9.60;99.90
66271;DHT22;53063;39.614;8.814;2022-12-18T00:03:20;9.70;99.90
66271;DHT22;53063;39.614;8.814;2022-12-18T00:05:48;9.80;99.90
66271;DHT22;53063;39.614;8.814;2022-12-18T00:08:14;9.90;99.90
66271;DHT22;53063;39.614;8.814;2022-12-18T00:10:40;9.90;99.90
66271;DHT22;53063;39.614;8.814;2022-12-18T00:13:06;10.00;99.90
66271;DHT22;53063;39.614;8.814;2022-12-18T00:15:34;9.90;99.90
66271;DHT22;53063;39.614;8.814;2022-12-18T00:18:00;9.90;99.90
66271;DHT22;53063;39.614;8.814;2022-12-18T00:20:26;9.90;99.90
66271;DHT22;53063;39.614;8.814;2022-12-18T00:22:53;9.90;99.90
66271;DHT22;53063;39.614;8.814;2022-12-18T00:25:18;9.90;99.90
66271;DHT22;53063;39.614;8.814;2022-12-18T00:27:44;9.90;99.90
66271;DHT22;53063;39.614;8.814;2022-12-18T00:30:11;10.00;99.90
66271;DHT22;53063;39.614;8.814;2022-12-18T00:32:37;9.90;99.90
66271;DHT22;53063;39.614;8.814;2022-12-18T00:35:04;9.80;99.90
66271;DHT22;53063;39.614;8.814;2022-12-18T00:37:30;9.80;99.90
66271;DHT22;53063;39.614;8.814;2022-12-18T00:39:56;9.60;99.90
66271;DHT22;53063;39.614;8.814;2022-12-18T00:42:22;9.50;99.90
66271;DHT22;53063;39.614;8.814;2022-12-18T00:45:06;9.50;99.90
66271;DHT22;53063;39.614;8.814;2022-12-18T00:47:32;9.30;99.90
66271;DHT22;53063;39.614;8.814;2022-12-18T00:49:58;9.30;99.90
66271;DHT22;53063;39.614;8.814;2022-12-18T00:52:24;9.40;99.90
66271;DHT22;53063;39.614;8.814;2022-12-18T00:54:50;9.40;99.90
66271;DHT22;53063;39.614;8.814;2022-12-18T00:57:16;9.40;99.90
66271;DHT22;53063;39.614;8.814;2022-12-18T00:59:42;9.30;99.90
66271;DHT22;53063;39.614;8.814;2022-12-18T01:02:08;9.20;99.90
66271;DHT22;53063;39.614;8.814;2022-12-18T01:04:34;9.10;99.90
66271;DHT22;53063;39.614;8.814;2022-12-18T01:07:00;9.10;99.90
66271;DHT22;53063;39.614;8.814;2022-12-18T01:09:26;9.10;99.90
66271;DHT22;53063;39.614;8.814;2022-12-18T01:11:52;9.00;99.90
66271;DHT22;53063;39.614;8.814;2022-12-18T01:14:18;9.00;99.90
66271;DHT22;53063;39.614;8.814;2022-12-18T01:16:44;8.90;99.90
66271;DHT22;53063;39.614;8.814;2022-12-18T01:19:10;8.90;99.90
66271;DHT22;53063;39.614;8.814;2022-12-18T01:21:36;8.90;99.90
66271;DHT22;53063;39.614;8.814;2022-12-18T01:24:03;8.80;99.90
66271;DHT22;53063;39.614;8.814;2022-12-18T01:26:29;8.70;99.90
66271;DHT22;53063;39.614;8.814;2022-12-18T01:28:56;8.70;99.90
66271;DHT22;53063;39.614;8.814;2022-12-18T01:31:23;8.70;99.90
66271;DHT22;53063;39.614;8.814;2022-12-18T01:33:50;8.60;99.90
66271;DHT22;53063;39.614;8.814;2022-12-18T01:36:25;8.90;99.90
66271;DHT22;53063;39.614;8.814;2022-12-18T01:38:52;8.90;99.90
66271;DHT22;53063;39.614;8.814;2022-12-18T01:41:21;9.00;99.90
66271;DHT22;53063;39.614;8.814;2022-12-18T01:43:57;9.00;99.90
66271;DHT22;53063;39.614;8.814;2022-12-18T01:46:25;9.10;99.90
66271;DHT22;53063;39.614;8.814;2022-12-18T01:48:55;9.10;99.90
66271;DHT22;53063;39.614;8.814;2022-12-18T01:51:23;8.80;99.90
66271;DHT22;53063;39.614;8.814;2022-12-18T01:53:50;8.90;99.90
66271;DHT22;53063;39.614;8.814;2022-12-18T01:56:18;9.00;99.90
66271;DHT22;53063;39.614;8.814;2022-12-18T01:58:58;9.20;99.90
66271;DHT22;53063;39.614;8.814;2022-12-18T02:01:26;9.20;99.90
66271;DHT22;53063;39.614;8.814;2022-12-18T02:03:52;9.10;99.90
66271;DHT22;53063;39.614;8.814;2022-12-18T02:06:33;9.20;99.90
66271;DHT22;53063;39.614;8.814;2022-12-18T02:16:59;9.00;99.90
66271;DHT22;53063;39.614;8.814;2022-12-18T02:24:57;9.00;99.90
66271;DHT22;53063;39.614;8.814;2022-12-18T02:27:27;8.70;99.90
66271;DHT22;53063;39.614;8.814;2022-12-18T02:29:56;8.90;99.90
66271;DHT22;53063;39.614;8.814;2022-12-18T02:32:31;9.10;99.90
66271;DHT22;53063;39.614;8.814;2022-12-18T02:34:59;9.20;99.90
66271;DHT22;53063;39.614;8.814;2022-12-18T02:37:29;9.20;99.90
66271;DHT22;53063;39.614;8.814;2022-12-18T02:39:59;9.10;99.90
66271;DHT22;53063;39.614;8.814;2022-12-18T02:42:27;9.10;99.90
66271;DHT22;53063;39.614;8.814;2022-12-18T02:44:53;9.10;99.90
66271;DHT22;53063;39.614;8.814;2022-12-18T02:47:28;9.00;99.90
66271;DHT22;53063;39.614;8.814;2022-12-18T02:50:33;9.00;99.90
66271;DHT22;53063;39.614;8.814;2022-12-18T02:53:30;8.90;99.90
66271;DHT22;53063;39.614;8.814;2022-12-18T02:56:21;8.70;99.90
66271;DHT22;53063;39.614;8.814;2022-12-18T02:59:15;9.00;99.90
66271;DHT22;53063;39.614;8.814;2022-12-18T03:01:58;9.20;99.90
66271;DHT22;53063;39.614;8.814;2022-12-18T03:04:30;9.20;99.90
66271;DHT22;53063;39.614;8.814;2022-12-18T03:07:04;9.10;99.90
66271;DHT22;53063;39.614;8.814;2022-12-18T03:09:36;9.00;99.90
66271;DHT22;53063;39.614;8.814;2022-12-18T03:12:16;8.90;99.90
66271;DHT22;53063;39.614;8.814;2022-12-18T03:14:54;8.80;99.90
66271;DHT22;53063;39.614;8.814;2022-12-18T03:17:24;8.80;99.90
66271;DHT22;53063;39.614;8.814;2022-12-18T03:19:53;8.80;99.90
66271;DHT22;53063;39.614;8.814;2022-12-18T03:22:20;8.90;99.90
66271;DHT22;53063;39.614;8.814;2022-12-18T03:24:51;9.10;99.90
66271;DHT22;53063;39.614;8.814;2022-12-18T03:27:20;9.00;99.90
66271;DHT22;53063;39.614;8.814;2022-12-18T03:30:04;9.00;99.90
66271;DHT22;53063;39.614;8.814;2022-12-18T03:35:12;9.00;99.90
66271;DHT22;53063;39.614;8.814;2022-12-18T03:37:43;8.80;99.90
66271;DHT22;53063;39.614;8.814;2022-12-18T03:40:09;8.90;99.90
66271;DHT22;53063;39.614;8.814;2022-12-18T03:45:25;9.10;99.90
66271;DHT22;53063;39.614;8.814;2022-12-18T03:53:52;8.80;99.90
66271;DHT22;53063;39.614;8.814;2022-12-18T03:56:32;8.70;99.90
66271;DHT22;53063;39.614;8.814;2022-12-18T03:59:00;9.00;99.90
66271;DHT22;53063;39.614;8.814;2022-12-18T04:01:34;8.90;99.90
66271;DHT22;53063;39.614;8.814;2022-12-18T04:04:02;8.90;99.90
66271;DHT22;53063;39.614;8.814;2022-12-18T04:06:36;8.90;99.90
66271;DHT22;53063;39.614;8.814;2022-12-18T04:09:03;8.70;99.90
66271;DHT22;53063;39.614;8.814;2022-12-18T04:11:32;8.70;99.90
66271;DHT22;53063;39.614;8.814;2022-12-18T04:14:00;8.60;99.90
66271;DHT22;53063;39.614;8.814;2022-12-18T04:16:27;8.60;99.90
66271;DHT22;53063;39.614;8.814;2022-12-18T04:18:57;8.60;99.90
66271;DHT22;53063;39.614;8.814;2022-12-18T04:21:25;8.50;99.90
66271;DHT22;53063;39.614;8.814;2022-12-18T04:23:52;8.60;99.90
66271;DHT22;53063;39.614;8.814;2022-12-18T04:26:20;8.60;99.90
66271;DHT22;53063;39.614;8.814;2022-12-18T04:28:57;8.50;99.90
66271;DHT22;53063;39.614;8.814;2022-12-18T04:31:23;8.50;99.90
66271;DHT22;53063;39.614;8.814;2022-12-18T04:33:50;8.40;99.90
66271;DHT22;53063;39.614;8.814;2022-12-18T04:36:16;8.40;99.90
66271;DHT22;53063;39.614;8.814;2022-12-18T04:38:44;8.50;99.90
66271;DHT22;53063;39.614;8.814;2022-12-18T04:41:14;8.50;99.90
66271;DHT22;53063;39.614;8.814;2022-12-18T04:43:41;8.60;99.90
66271;DHT22;53063;39.614;8.814;2022-12-18T04:46:07;8.60;99.90
66271;DHT22;53063;39.614;8.814;2022-12-18T04:48:34;8.50;99.90
66271;DHT22;53063;39.614;8.814;2022-12-18T04:51:02;8.50;99.90
66271;DHT22;53063;39.614;8.814;2022-12-18T04:53:28;8.50;99.90
66271;DHT22;53063;39.614;8.814;2022-12-18T04:56:14;8.50;99.90
66271;DHT22;53063;39.614;8.814;2022-12-18T04:58:42;8.40;99.90
66271;DHT22;53063;39.614;8.814;2022-12-18T05:01:09;8.40;99.90
66271;DHT22;53063;39.614;8.814;2022-12-18T05:03:36;8.40;99.90
66271;DHT22;53063;39.614;8.814;2022-12-18T05:06:03;8.40;99.90
66271;DHT22;53063;39.614;8.814;2022-12-18T05:08:29;8.40;99.90
66271;DHT22;53063;39.614;8.814;2022-12-18T05:11:04;8.40;99.90
66271;DHT22;53063;39.614;8.814;2022-12-18T05:13:31;8.30;99.90
66271;DHT22;53063;39.614;8.814;2022-12-18T05:15:57;8.20;99.90
66271;DHT22;53063;39.614;8.814;2022-12-18T05:18:23;8.20;99.90
66271;DHT22;53063;39.614;8.814;2022-12-18T05:20:53;8.20;99.90
66271;DHT22;53063;39.614;8.814;2022-12-18T05:23:21;8.20;99.90
66271;DHT22;53063;39.614;8.814;2022-12-18T05:25:51;8.30;99.90
66271;DHT22;53063;39.614;8.814;2022-12-18T05:28:17;8.40;99.90
66271;DHT22;53063;39.614;8.814;2022-12-18T05:30:48;8.30;99.90
66271;DHT22;53063;39.614;8.814;2022-12-18T05:33:15;8.40;99.90
66271;DHT22;53063;39.614;8.814;2022-12-18T05:35:40;8.20;99.90
66271;DHT22;53063;39.614;8.814;2022-12-18T05:38:06;8.10;99.90
66271;DHT22;53063;39.614;8.814;2022-12-18T05:40:32;8.20;99.90
66271;DHT22;53063;39.614;8.814;2022-12-18T05:42:58;8.20;99.90
66271;DHT22;53063;39.614;8.814;2022-12-18T05:45:24;8.20;99.90
66271;DHT22;53063;39.614;8.814;2022-12-18T05:47:49;8.20;99.90
66271;DHT22;53063;39.614;8.814;2022-12-18T05:50:16;8.10;99.90
66271;DHT22;53063;39.614;8.814;2022-12-18T05:52:41;8.10;99.90
66271;DHT22;53063;39.614;8.814;2022-12-18T05:55:07;7.90;99.90
66271;DHT22;53063;39.614;8.814;2022-12-18T05:57:33;7.90;99.90
66271;DHT22;53063;39.614;8.814;2022-12-18T05:59:59;7.80;99.90
66271;DHT22;53063;39.614;8.814;2022-12-18T06:02:25;7.90;99.90
66271;DHT22;53063;39.614;8.814;2022-12-18T06:04:51;8.00;99.90
66271;DHT22;53063;39.614;8.814;2022-12-18T06:07:17;7.80;99.90
66271;DHT22;53063;39.614;8.814;2022-12-18T06:09:43;7.80;99.90
66271;DHT22;53063;39.614;8.814;2022-12-18T06:12:09;7.80;99.90
66271;DHT22;53063;39.614;8.814;2022-12-18T06:14:34;7.90;99.90
66271;DHT22;53063;39.614;8.814;2022-12-18T06:17:00;7.80;99.90
66271;DHT22;53063;39.614;8.814;2022-12-18T06:19:26;7.90;99.90
66271;DHT22;53063;39.614;8.814;2022-12-18T06:21:52;7.90;99.90
66271;DHT22;53063;39.614;8.814;2022-12-18T06:24:18;7.90;99.90
66271;DHT22;53063;39.614;8.814;2022-12-18T06:26:44;7.90;99.90
66271;DHT22;53063;39.614;8.814;2022-12-18T06:29:10;7.90;99.90
66271;DHT22;53063;39.614;8.814;2022-12-18T06:31:36;7.90;99.90
66271;DHT22;53063;39.614;8.814;2022-12-18T06:34:03;7.90;99.90
66271;DHT22;53063;39.614;8.814;2022-12-18T06:36:29;7.80;99.90
66271;DHT22;53063;39.614;8.814;2022-12-18T06:38:56;7.90;99.90
66271;DHT22;53063;39.614;8.814;2022-12-18T06:41:23;8.00;99.90
66271;DHT22;53063;39.614;8.814;2022-12-18T06:43:49;8.10;99.90
66271;DHT22;53063;39.614;8.814;2022-12-18T06:46:15;8.10;99.90
66271;DHT22;53063;39.614;8.814;2022-12-18T06:48:41;8.00;99.90
66271;DHT22;53063;39.614;8.814;2022-12-18T06:51:07;8.00;99.90
66271;DHT22;53063;39.614;8.814;2022-12-18T06:53:33;8.00;99.90
66271;DHT22;53063;39.614;8.814;2022-12-18T06:56:03;8.00;99.90
66271;DHT22;53063;39.614;8.814;2022-12-18T06:58:30;7.90;99.90
66271;DHT22;53063;39.614;8.814;2022-12-18T07:01:03;7.80;99.90
66271;DHT22;53063;39.614;8.814;2022-12-18T07:03:30;7.90;99.90
66271;DHT22;53063;39.614;8.814;2022-12-18T07:05:56;8.00;99.90
66271;DHT22;53063;39.614;8.814;2022-12-18T07:08:22;8.10;99.90
66271;DHT22;53063;39.614;8.814;2022-12-18T07:10:47;8.00;99.90
66271;DHT22;53063;39.614;8.814;2022-12-18T07:13:15;8.10;99.90
66271;DHT22;53063;39.614;8.814;2022-12-18T07:15:41;8.00;99.90
66271;DHT22;53063;39.614;8.814;2022-12-18T07:18:07;8.10;99.90
66271;DHT22;53063;39.614;8.814;2022-12-18T07:20:33;8.10;99.90
66271;DHT22;53063;39.614;8.814;2022-12-18T07:23:02;8.20;99.90
66271;DHT22;53063;39.614;8.814;2022-12-18T07:25:28;8.30;99.90
66271;DHT22;53063;39.614;8.814;2022-12-18T07:27:54;8.50;99.90
66271;DHT22;53063;39.614;8.814;2022-12-18T07:30:20;8.50;99.90
66271;DHT22;53063;39.614;8.814;2022-12-18T07:32:46;8.70;99.90
66271;DHT22;53063;39.614;8.814;2022-12-18T07:35:12;8.80;99.90
66271;DHT22;53063;39.614;8.814;2022-12-18T07:37:38;8.80;99.90
66271;DHT22;53063;39.614;8.814;2022-12-18T07:40:04;8.90;99.90
66271;DHT22;53063;39.614;8.814;2022-12-18T07:42:30;9.00;99.90
66271;DHT22;53063;39.614;8.814;2022-12-18T07:44:57;9.20;99.90
66271;DHT22;53063;39.614;8.814;2022-12-18T07:47:23;9.40;99.90
66271;DHT22;53063;39.614;8.814;2022-12-18T07:49:48;10.20;99.90
66271;DHT22;53063;39.614;8.814;2022-12-18T07:52:14;12.10;99.90
66271;DHT22;53063;39.614;8.814;2022-12-18T07:54:41;13.40;99.90
66271;DHT22;53063;39.614;8.814;2022-12-18T07:57:07;14.70;99.90
66271;DHT22;53063;39.614;8.814;2022-12-18T07:59:33;15.50;99.90
66271;DHT22;53063;39.614;8.814;2022-12-18T08:01:59;15.80;96.30
66271;DHT22;53063;39.614;8.814;2022-12-18T08:04:25;16.40;92.40
66271;DHT22;53063;39.614;8.814;2022-12-18T08:06:51;17.40;87.80
66271;DHT22;53063;39.614;8.814;2022-12-18T08:09:17;18.80;82.40
66271;DHT22;53063;39.614;8.814;2022-12-18T08:11:43;19.10;79.20
66271;DHT22;53063;39.614;8.814;2022-12-18T08:14:09;19.00;76.00
66271;DHT22;53063;39.614;8.814;2022-12-18T08:16:35;18.70;76.70
66271;DHT22;53063;39.614;8.814;2022-12-18T08:19:01;18.40;77.50
66271;DHT22;53063;39.614;8.814;2022-12-18T08:21:30;18.20;77.00
66271;DHT22;53063;39.614;8.814;2022-12-18T08:23:59;18.90;76.90
66271;DHT22;53063;39.614;8.814;2022-12-18T08:26:27;19.70;72.20
66271;DHT22;53063;39.614;8.814;2022-12-18T08:28:55;20.40;72.30
66271;DHT22;53063;39.614;8.814;2022-12-18T08:31:21;21.40;73.30
66271;DHT22;53063;39.614;8.814;2022-12-18T08:33:51;22.40;63.90
66271;DHT22;53063;39.614;8.814;2022-12-18T08:36:18;21.70;65.60
66271;DHT22;53063;39.614;8.814;2022-12-18T08:38:45;21.90;67.50
66271;DHT22;53063;39.614;8.814;2022-12-18T08:41:13;22.60;67.30
66271;DHT22;53063;39.614;8.814;2022-12-18T08:43:40;22.10;63.10
66271;DHT22;53063;39.614;8.814;2022-12-18T08:46:26;20.10;67.00
66271;DHT22;53063;39.614;8.814;2022-12-18T08:48:54;19.30;71.70
66271;DHT22;53063;39.614;8.814;2022-12-18T08:51:21;20.10;68.30
66271;DHT22;53063;39.614;8.814;2022-12-18T08:53:47;20.90;69.00
66271;DHT22;53063;39.614;8.814;2022-12-18T08:56:14;22.30;64.30
66271;DHT22;53063;39.614;8.814;2022-12-18T08:58:40;21.80;63.30
66271;DHT22;53063;39.614;8.814;2022-12-18T09:01:08;22.10;64.50
66271;DHT22;53063;39.614;8.814;2022-12-18T09:03:34;21.80;63.40
66271;DHT22;53063;39.614;8.814;2022-12-18T09:06:01;21.60;64.60
66271;DHT22;53063;39.614;8.814;2022-12-18T09:08:27;20.80;66.30
66271;DHT22;53063;39.614;8.814;2022-12-18T09:10:53;21.10;64.70
66271;DHT22;53063;39.614;8.814;2022-12-18T09:13:19;21.80;64.00
66271;DHT22;53063;39.614;8.814;2022-12-18T09:15:51;21.60;64.70
66271;DHT22;53063;39.614;8.814;2022-12-18T09:18:19;22.00;63.20
66271;DHT22;53063;39.614;8.814;2022-12-18T09:20:46;21.80;62.30
66271;DHT22;53063;39.614;8.814;2022-12-18T09:23:12;23.80;63.40
66271;DHT22;53063;39.614;8.814;2022-12-18T09:25:38;25.20;59.00
66271;DHT22;53063;39.614;8.814;2022-12-18T09:28:13;25.30;52.30
66271;DHT22;53063;39.614;8.814;2022-12-18T09:30:40;24.60;53.70
66271;DHT22;53063;39.614;8.814;2022-12-18T09:33:06;23.50;53.10
66271;DHT22;53063;39.614;8.814;2022-12-18T09:35:35;23.10;56.20
66271;DHT22;53063;39.614;8.814;2022-12-18T09:38:01;23.30;54.80
66271;DHT22;53063;39.614;8.814;2022-12-18T09:40:40;23.20;56.50
66271;DHT22;53063;39.614;8.814;2022-12-18T09:43:15;25.00;56.70
66271;DHT22;53063;39.614;8.814;2022-12-18T09:45:45;24.20;52.30
66271;DHT22;53063;39.614;8.814;2022-12-18T09:48:31;23.60;55.80
66271;DHT22;53063;39.614;8.814;2022-12-18T09:51:05;23.90;55.40
66271;DHT22;53063;39.614;8.814;2022-12-18T09:53:37;23.90;55.50
66271;DHT22;53063;39.614;8.814;2022-12-18T09:56:05;23.90;54.60
66271;DHT22;53063;39.614;8.814;2022-12-18T09:58:39;24.80;53.30
66271;DHT22;53063;39.614;8.814;2022-12-18T10:01:12;25.40;51.60
66271;DHT22;53063;39.614;8.814;2022-12-18T10:03:40;23.70;54.40
66271;DHT22;53063;39.614;8.814;2022-12-18T10:06:13;23.20;55.00
66271;DHT22;53063;39.614;8.814;2022-12-18T10:09:18;23.20;55.90
66271;DHT22;53063;39.614;8.814;2022-12-18T10:12:17;23.20;57.20
66271;DHT22;53063;39.614;8.814;2022-12-18T10:15:20;24.90;54.00
66271;DHT22;53063;39.614;8.814;2022-12-18T10:20:49;23.80;54.60
66271;DHT22;53063;39.614;8.814;2022-12-18T10:26:04;23.10;55.70
66271;DHT22;53063;39.614;8.814;2022-12-18T10:28:32;23.30;57.50
66271;DHT22;53063;39.614;8.814;2022-12-18T10:30:59;23.80;59.10
66271;DHT22;53063;39.614;8.814;2022-12-18T10:33:29;26.10;53.10
66271;DHT22;53063;39.614;8.814;2022-12-18T10:35:56;27.60;48.80
66271;DHT22;53063;39.614;8.814;2022-12-18T10:38:25;28.20;48.20
66271;DHT22;53063;39.614;8.814;2022-12-18T10:41:24;27.60;46.20
66271;DHT22;53063;39.614;8.814;2022-12-18T10:46:38;28.20;47.50
66271;DHT22;53063;39.614;8.814;2022-12-18T10:49:04;28.20;47.60
66271;DHT22;53063;39.614;8.814;2022-12-18T10:51:33;29.40;45.20
66271;DHT22;53063;39.614;8.814;2022-12-18T10:54:06;27.50;44.20
66271;DHT22;53063;39.614;8.814;2022-12-18T10:56:38;27.60;48.30
66271;DHT22;53063;39.614;8.814;2022-12-18T10:59:06;28.20;45.70
66271;DHT22;53063;39.614;8.814;2022-12-18T11:01:54;28.30;46.10
66271;DHT22;53063;39.614;8.814;2022-12-18T11:07:06;28.70;44.20
66271;DHT22;53063;39.614;8.814;2022-12-18T11:09:35;28.60;43.80
66271;DHT22;53063;39.614;8.814;2022-12-18T11:12:05;28.20;46.40
66271;DHT22;53063;39.614;8.814;2022-12-18T11:17:34;26.30;47.20
66271;DHT22;53063;39.614;8.814;2022-12-18T11:20:06;23.30;57.00
66271;DHT22;53063;39.614;8.814;2022-12-18T11:22:44;22.10;61.00
66271;DHT22;53063;39.614;8.814;2022-12-18T11:25:20;22.20;59.30
66271;DHT22;53063;39.614;8.814;2022-12-18T11:27:52;20.90;65.40
66271;DHT22;53063;39.614;8.814;2022-12-18T11:30:23;21.60;65.70
66271;DHT22;53063;39.614;8.814;2022-12-18T11:38:29;20.70;68.80
66271;DHT22;53063;39.614;8.814;2022-12-18T11:46:35;19.10;73.40
66271;DHT22;53063;39.614;8.814;2022-12-18T11:49:08;18.80;72.40
66271;DHT22;53063;39.614;8.814;2022-12-18T11:54:25;20.10;71.60
66271;DHT22;53063;39.614;8.814;2022-12-18T11:57:02;20.00;67.20
66271;DHT22;53063;39.614;8.814;2022-12-18T12:10:39;20.00;71.90
66271;DHT22;53063;39.614;8.814;2022-12-18T12:13:20;20.30;70.50
66271;DHT22;53063;39.614;8.814;2022-12-18T12:21:17;20.20;69.60
66271;DHT22;53063;39.614;8.814;2022-12-18T12:24:18;20.30;68.80
66271;DHT22;53063;39.614;8.814;2022-12-18T12:39:56;20.20;67.90
66271;DHT22;53063;39.614;8.814;2022-12-18T12:45:52;20.40;66.30
66271;DHT22;53063;39.614;8.814;2022-12-18T12:48:31;20.40;65.30
66271;DHT22;53063;39.614;8.814;2022-12-18T12:51:01;20.30;67.10
66271;DHT22;53063;39.614;8.814;2022-12-18T12:53:33;20.30;64.70
66271;DHT22;53063;39.614;8.814;2022-12-18T12:56:01;20.20;65.60
66271;DHT22;53063;39.614;8.814;2022-12-18T13:01:41;20.20;65.10
66271;DHT22;53063;39.614;8.814;2022-12-18T13:04:50;20.10;64.40
66271;DHT22;53063;39.614;8.814;2022-12-18T13:07:41;20.20;64.60
66271;DHT22;53063;39.614;8.814;2022-12-18T13:13:01;20.20;63.40
66271;DHT22;53063;39.614;8.814;2022-12-18T13:18:05;20.30;63.40
66271;DHT22;53063;39.614;8.814;2022-12-18T13:20:44;20.20;62.10
66271;DHT22;53063;39.614;8.814;2022-12-18T13:23:30;20.50;59.80
66271;DHT22;53063;39.614;8.814;2022-12-18T13:34:23;20.80;58.60
66271;DHT22;53063;39.614;8.814;2022-12-18T13:36:49;21.00;57.10
66271;DHT22;53063;39.614;8.814;2022-12-18T13:41:50;21.10;57.10
66271;DHT22;53063;39.614;8.814;2022-12-18T13:44:35;21.30;57.00
66271;DHT22;53063;39.614;8.814;2022-12-18T13:47:03;21.80;57.50
66271;DHT22;53063;39.614;8.814;2022-12-18T13:49:39;22.70;54.00
66271;DHT22;53063;39.614;8.814;2022-12-18T13:52:38;24.30;49.70
66271;DHT22;53063;39.614;8.814;2022-12-18T13:55:11;24.40;51.10
66271;DHT22;53063;39.614;8.814;2022-12-18T13:57:40;26.10;47.40
66271;DHT22;53063;39.614;8.814;2022-12-18T14:02:48;27.10;43.20
66271;DHT22;53063;39.614;8.814;2022-12-18T14:05:33;27.10;43.10
66271;DHT22;53063;39.614;8.814;2022-12-18T14:08:10;26.80;43.50
66271;DHT22;53063;39.614;8.814;2022-12-18T14:10:47;26.20;45.00
66271;DHT22;53063;39.614;8.814;2022-12-18T14:13:24;26.20;44.30
66271;DHT22;53063;39.614;8.814;2022-12-18T14:15:52;26.30;44.70
66271;DHT22;53063;39.614;8.814;2022-12-18T14:18:33;26.00;45.90
66271;DHT22;53063;39.614;8.814;2022-12-18T14:21:02;25.50;46.30
66271;DHT22;53063;39.614;8.814;2022-12-18T14:25:57;24.80;47.70
66271;DHT22;53063;39.614;8.814;2022-12-18T14:28:24;23.20;50.60
66271;DHT22;53063;39.614;8.814;2022-12-18T14:30:52;20.70;57.10
66271;DHT22;53063;39.614;8.814;2022-12-18T14:33:24;19.30;63.30
66271;DHT22;53063;39.614;8.814;2022-12-18T14:41:00;18.10;72.70
66271;DHT22;53063;39.614;8.814;2022-12-18T14:43:29;17.80;74.30
66271;DHT22;53063;39.614;8.814;2022-12-18T14:45:56;17.70;74.30
66271;DHT22;53063;39.614;8.814;2022-12-18T14:48:38;17.50;74.10
66271;DHT22;53063;39.614;8.814;2022-12-18T14:51:16;17.40;75.30
66271;DHT22;53063;39.614;8.814;2022-12-18T14:53:46;17.20;77.90
66271;DHT22;53063;39.614;8.814;2022-12-18T14:56:30;17.40;78.40
66271;DHT22;53063;39.614;8.814;2022-12-18T14:58:58;17.20;79.70
66271;DHT22;53063;39.614;8.814;2022-12-18T15:01:28;17.00;80.80
66271;DHT22;53063;39.614;8.814;2022-12-18T15:03:55;16.80;82.90
66271;DHT22;53063;39.614;8.814;2022-12-18T15:06:29;16.60;83.10
66271;DHT22;53063;39.614;8.814;2022-12-18T15:08:57;16.50;84.20
66271;DHT22;53063;39.614;8.814;2022-12-18T15:11:29;16.50;84.80
66271;DHT22;53063;39.614;8.814;2022-12-18T15:13:57;16.40;84.60
66271;DHT22;53063;39.614;8.814;2022-12-18T15:16:23;16.40;85.20
66271;DHT22;53063;39.614;8.814;2022-12-18T15:18:49;16.30;85.70
66271;DHT22;53063;39.614;8.814;2022-12-18T15:21:19;16.10;86.10
66271;DHT22;53063;39.614;8.814;2022-12-18T15:23:49;16.10;86.50
66271;DHT22;53063;39.614;8.814;2022-12-18T15:26:18;16.10;86.90
66271;DHT22;53063;39.614;8.814;2022-12-18T15:28:52;15.90;88.50
66271;DHT22;53063;39.614;8.814;2022-12-18T15:31:29;15.90;89.60
66271;DHT22;53063;39.614;8.814;2022-12-18T15:36:23;15.70;92.30
66271;DHT22;53063;39.614;8.814;2022-12-18T15:38:50;15.60;93.40
66271;DHT22;53063;39.614;8.814;2022-12-18T15:41:19;15.50;95.10
66271;DHT22;53063;39.614;8.814;2022-12-18T15:43:46;15.40;96.60
66271;DHT22;53063;39.614;8.814;2022-12-18T15:46:18;15.30;98.30
66271;DHT22;53063;39.614;8.814;2022-12-18T15:48:51;15.20;99.90
66271;DHT22;53063;39.614;8.814;2022-12-18T15:53:47;15.10;99.90
66271;DHT22;53063;39.614;8.814;2022-12-18T15:56:15;15.00;99.90
66271;DHT22;53063;39.614;8.814;2022-12-18T15:59:00;14.90;99.90
66271;DHT22;53063;39.614;8.814;2022-12-18T16:01:28;14.80;99.90
66271;DHT22;53063;39.614;8.814;2022-12-18T16:03:54;14.70;99.90
66271;DHT22;53063;39.614;8.814;2022-12-18T16:06:21;14.70;99.90
66271;DHT22;53063;39.614;8.814;2022-12-18T16:08:48;14.60;99.90
66271;DHT22;53063;39.614;8.814;2022-12-18T16:13:45;14.40;99.90
66271;DHT22;53063;39.614;8.814;2022-12-18T16:16:11;14.30;99.90
66271;DHT22;53063;39.614;8.814;2022-12-18T16:18:37;14.30;99.90
66271;DHT22;53063;39.614;8.814;2022-12-18T16:21:02;14.20;99.90
66271;DHT22;53063;39.614;8.814;2022-12-18T16:23:28;14.10;99.90
66271;DHT22;53063;39.614;8.814;2022-12-18T16:25:54;14.10;99.90
66271;DHT22;53063;39.614;8.814;2022-12-18T16:28:20;14.10;99.90
66271;DHT22;53063;39.614;8.814;2022-12-18T16:30:47;14.00;99.90
66271;DHT22;53063;39.614;8.814;2022-12-18T16:33:13;14.00;99.90
66271;DHT22;53063;39.614;8.814;2022-12-18T16:35:39;13.90;99.90
66271;DHT22;53063;39.614;8.814;2022-12-18T16:38:05;13.80;99.90
66271;DHT22;53063;39.614;8.814;2022-12-18T16:40:31;13.60;99.90
66271;DHT22;53063;39.614;8.814;2022-12-18T16:42:58;13.60;99.90
66271;DHT22;53063;39.614;8.814;2022-12-18T16:45:27;13.50;99.90
66271;DHT22;53063;39.614;8.814;2022-12-18T16:47:58;13.60;99.90
66271;DHT22;53063;39.614;8.814;2022-12-18T16:50:24;13.60;99.90
66271;DHT22;53063;39.614;8.814;2022-12-18T16:52:50;13.50;99.90
66271;DHT22;53063;39.614;8.814;2022-12-18T16:55:16;13.60;99.90
66271;DHT22;53063;39.614;8.814;2022-12-18T16:57:42;13.50;99.90
66271;DHT22;53063;39.614;8.814;2022-12-18T17:00:08;13.40;99.90
66271;DHT22;53063;39.614;8.814;2022-12-18T17:02:35;13.30;99.90
66271;DHT22;53063;39.614;8.814;2022-12-18T17:05:01;13.20;99.90
66271;DHT22;53063;39.614;8.814;2022-12-18T17:07:27;13.10;99.90
66271;DHT22;53063;39.614;8.814;2022-12-18T17:09:53;12.70;99.90
66271;DHT22;53063;39.614;8.814;2022-12-18T17:12:19;12.50;99.90
66271;DHT22;53063;39.614;8.814;2022-12-18T17:14:45;12.30;99.90
66271;DHT22;53063;39.614;8.814;2022-12-18T17:17:11;12.50;99.90
66271;DHT22;53063;39.614;8.814;2022-12-18T17:19:37;12.50;99.90
66271;DHT22;53063;39.614;8.814;2022-12-18T17:22:03;12.60;99.90
66271;DHT22;53063;39.614;8.814;2022-12-18T17:24:29;12.60;99.90
66271;DHT22;53063;39.614;8.814;2022-12-18T17:26:55;12.50;99.90
66271;DHT22;53063;39.614;8.814;2022-12-18T17:29:21;12.50;99.90
66271;DHT22;53063;39.614;8.814;2022-12-18T17:31:47;12.40;99.90
66271;DHT22;53063;39.614;8.814;2022-12-18T17:34:14;12.50;99.90
66271;DHT22;53063;39.614;8.814;2022-12-18T17:36:40;12.60;99.90
66271;DHT22;53063;39.614;8.814;2022-12-18T17:39:07;12.70;99.90
66271;DHT22;53063;39.614;8.814;2022-12-18T17:41:33;12.70;99.90
66271;DHT22;53063;39.614;8.814;2022-12-18T17:44:02;12.60;99.90
66271;DHT22;53063;39.614;8.814;2022-12-18T17:46:30;12.70;99.90
66271;DHT22;53063;39.614;8.814;2022-12-18T17:48:57;12.60;99.90
66271;DHT22;53063;39.614;8.814;2022-12-18T17:51:24;12.60;99.90
66271;DHT22;53063;39.614;8.814;2022-12-18T17:53:50;12.60;99.90
66271;DHT22;53063;39.614;8.814;2022-12-18T17:56:18;12.60;99.90